Time;durP1;ratioP1;P1;durP2;ratioP2;P2;SDS_P1;SDS_P2;PMS_P1;PMS_P2;Temp;Humidity;BMP_temperature;BMP_pressure;BME280_temperature;BME280_humidity;BME280_pressure;Samples;Min_cycle;Max_cycle;Signal;HPM_P1;HPM_P2
2021/11/23 00:00:19;;;;;;;13.30;9.20;;;;;;;2.99;100.00;97202.13;4994766;28;20030;-65
2021/11/23 00:02:44;;;;;;;13.43;9.85;;;;;;;2.96;100.00;97205.47;4998618;28;20457;-65
2021/11/23 00:05:11;;;;;;;12.35;9.68;;;;;;;2.95;100.00;97211.97;4981407;28;20046;-65
2021/11/23 00:07:37;;;;;;;13.30;10.25;;;;;;;2.97;100.00;97202.47;4980259;28;20129;-65
2021/11/23 00:10:04;;;;;;;12.98;9.98;;;;;;;2.95;100.00;97204.66;5014519;28;20578;-64
2021/11/23 00:12:29;;;;;;;13.90;9.50;;;;;;;3.06;100.00;97205.22;5015463;28;20108;-65
2021/11/23 00:14:55;;;;;;;15.35;10.32;;;;;;;2.97;100.00;97205.16;4999943;28;20101;-64
2021/11/23 00:17:20;;;;;;;13.13;9.30;;;;;;;3.06;100.00;97194.38;4994510;28;20580;-64
2021/11/23 00:19:46;;;;;;;13.00;10.07;;;;;;;2.97;100.00;97207.06;4999648;28;20491;-64
2021/11/23 00:22:11;;;;;;;13.85;9.20;;;;;;;3.01;100.00;97211.56;4994334;28;20045;-64
2021/11/23 00:24:37;;;;;;;13.40;9.73;;;;;;;3.06;100.00;97216.03;4997721;28;20038;-65
2021/11/23 00:27:04;;;;;;;15.70;10.30;;;;;;;2.99;100.00;97205.66;4996971;28;20046;-64
2021/11/23 00:29:30;;;;;;;13.20;9.73;;;;;;;3.04;100.00;97204.72;4996183;28;20394;-64
2021/11/23 00:31:55;;;;;;;14.32;9.35;;;;;;;2.90;100.00;97206.66;5001632;28;20048;-64
2021/11/23 00:34:21;;;;;;;15.70;9.68;;;;;;;2.99;100.00;97189.41;4991444;28;20056;-64
2021/11/23 00:36:47;;;;;;;12.90;9.68;;;;;;;3.00;100.00;97198.34;5000595;28;20095;-65
2021/11/23 00:39:12;;;;;;;12.15;8.68;;;;;;;3.06;100.00;97208.75;4993525;28;20046;-65
2021/11/23 00:41:37;;;;;;;16.55;10.98;;;;;;;2.95;100.00;97195.72;5000011;28;20049;-64
2021/11/23 00:44:03;;;;;;;14.45;10.15;;;;;;;2.92;100.00;97204.44;4980696;28;20554;-64
2021/11/23 00:46:28;;;;;;;15.45;9.70;;;;;;;2.95;100.00;97209.25;4987322;28;20388;-65
2021/11/23 00:48:54;;;;;;;14.07;10.48;;;;;;;3.00;100.00;97196.41;4984053;28;20042;-65
2021/11/23 00:51:19;;;;;;;14.55;10.25;;;;;;;3.04;100.00;97205.56;4980541;28;20077;-64
2021/11/23 00:53:45;;;;;;;13.90;9.60;;;;;;;2.97;100.00;97210.56;4984731;28;20102;-65
2021/11/23 00:56:11;;;;;;;16.35;11.25;;;;;;;3.04;100.00;97210.97;4978960;28;20061;-64
2021/11/23 00:58:36;;;;;;;17.48;10.80;;;;;;;2.97;100.00;97216.00;4984319;28;20411;-64
2021/11/23 01:01:02;;;;;;;15.13;10.60;;;;;;;2.90;100.00;97210.19;4982314;28;20042;-63
2021/11/23 01:03:32;;;;;;;17.05;11.18;;;;;;;2.94;100.00;97223.91;4979586;28;20137;-64
2021/11/23 01:06:01;;;;;;;16.08;12.07;;;;;;;2.89;100.00;97214.00;4983827;28;20381;-64
2021/11/23 01:08:27;;;;;;;16.73;11.00;;;;;;;2.98;100.00;97223.00;4977068;28;20082;-64
2021/11/23 01:10:55;;;;;;;16.85;12.52;;;;;;;2.89;100.00;97221.31;4983190;28;20048;-64
2021/11/23 01:13:21;;;;;;;16.08;11.35;;;;;;;2.95;100.00;97217.38;4988947;28;20037;-64
2021/11/23 01:15:46;;;;;;;16.85;12.00;;;;;;;2.83;100.00;97229.53;5006448;28;20364;-63
2021/11/23 01:18:12;;;;;;;16.88;10.15;;;;;;;2.96;100.00;97229.81;4995196;28;20053;-64
2021/11/23 01:20:38;;;;;;;15.93;9.90;;;;;;;2.94;100.00;97229.31;5000563;28;20411;-63
2021/11/23 01:23:04;;;;;;;15.23;9.75;;;;;;;3.00;100.00;97233.50;4999992;28;20110;-64
2021/11/23 01:25:31;;;;;;;16.38;11.13;;;;;;;2.82;100.00;97229.84;5000790;28;20106;-63
2021/11/23 01:27:56;;;;;;;16.77;11.60;;;;;;;2.86;100.00;97230.81;5003033;28;20466;-63
2021/11/23 01:30:22;;;;;;;18.55;11.80;;;;;;;2.79;100.00;97233.13;4996625;28;20062;-63
2021/11/23 01:32:48;;;;;;;16.40;11.00;;;;;;;2.89;100.00;97234.84;5001542;28;20510;-63
2021/11/23 01:35:14;;;;;;;18.95;11.23;;;;;;;2.88;100.00;97223.19;4995194;28;20038;-64
2021/11/23 01:37:42;;;;;;;18.52;12.38;;;;;;;2.79;100.00;97230.44;5002270;28;20038;-63
2021/11/23 01:40:09;;;;;;;17.23;11.05;;;;;;;2.75;100.00;97232.94;4997788;28;20069;-63
2021/11/23 01:42:35;;;;;;;18.42;11.18;;;;;;;2.89;100.00;97227.53;5001182;28;20076;-66
2021/11/23 01:45:01;;;;;;;18.52;11.35;;;;;;;2.73;100.00;97235.16;5002101;28;20408;-64
2021/11/23 01:47:27;;;;;;;18.95;11.60;;;;;;;2.69;100.00;97231.47;4999840;28;20050;-64
2021/11/23 01:49:52;;;;;;;18.75;12.02;;;;;;;2.74;100.00;97230.53;5000389;28;20395;-64
2021/11/23 01:52:18;;;;;;;17.52;11.60;;;;;;;2.65;100.00;97238.59;4995777;28;20045;-64
2021/11/23 01:54:43;;;;;;;19.52;11.82;;;;;;;2.70;100.00;97232.25;4999059;28;20499;-64
2021/11/23 01:57:10;;;;;;;20.30;11.98;;;;;;;2.67;100.00;97217.44;4995111;28;20042;-64
2021/11/23 01:59:36;;;;;;;19.15;11.70;;;;;;;2.61;100.00;97237.56;5002160;28;20046;-63
2021/11/23 02:02:01;;;;;;;19.33;11.65;;;;;;;2.66;100.00;97235.56;4996288;28;20099;-62
2021/11/23 02:04:27;;;;;;;20.15;12.68;;;;;;;2.65;100.00;97244.78;5009083;28;20148;-63
2021/11/23 02:06:53;;;;;;;19.38;12.48;;;;;;;2.60;100.00;97238.69;5000965;28;20045;-64
2021/11/23 02:09:18;;;;;;;19.27;11.20;;;;;;;2.63;100.00;97236.19;4993145;28;20049;-64
2021/11/23 02:11:44;;;;;;;23.33;12.18;;;;;;;2.52;100.00;97244.78;5003682;28;20049;-64
2021/11/23 02:14:10;;;;;;;21.38;13.50;;;;;;;2.52;100.00;97247.47;4992972;28;20510;-64
2021/11/23 02:16:35;;;;;;;21.13;12.77;;;;;;;2.51;100.00;97244.00;5001627;28;20084;-64
2021/11/23 02:19:01;;;;;;;19.65;11.10;;;;;;;2.49;100.00;97246.19;5000553;28;20045;-64
2021/11/23 02:21:27;;;;;;;17.15;10.07;;;;;;;2.53;100.00;97249.88;4996271;28;20045;-65
2021/11/23 02:23:52;;;;;;;20.95;12.50;;;;;;;2.46;100.00;97244.88;4997770;28;20041;-65
2021/11/23 02:26:18;;;;;;;21.67;13.30;;;;;;;2.47;100.00;97230.28;4995103;28;20070;-65
2021/11/23 02:28:43;;;;;;;21.75;12.40;;;;;;;2.42;100.00;97252.00;5000377;28;20044;-65
2021/11/23 02:31:10;;;;;;;22.55;12.70;;;;;;;2.41;100.00;97239.59;4995458;28;20095;-65
2021/11/23 02:33:39;;;;;;;22.67;12.73;;;;;;;2.44;100.00;97254.41;5000509;28;20053;-65
2021/11/23 02:36:08;;;;;;;21.67;12.27;;;;;;;2.47;100.00;97248.41;4994688;28;20049;-65
2021/11/23 02:38:35;;;;;;;19.55;12.50;;;;;;;2.44;100.00;97252.50;4994914;28;20046;-64
2021/11/23 02:41:03;;;;;;;21.38;11.95;;;;;;;2.48;100.00;97240.00;5000723;28;20053;-64
2021/11/23 02:43:28;;;;;;;17.30;10.88;;;;;;;2.41;100.00;97239.59;4995590;28;20046;-64
2021/11/23 02:45:54;;;;;;;22.05;12.90;;;;;;;2.38;100.00;97251.00;4996297;28;20476;-65
2021/11/23 02:48:20;;;;;;;21.73;12.07;;;;;;;2.38;100.00;97250.19;4996301;28;20084;-65
2021/11/23 02:53:31;;;;;;;21.58;12.05;;;;;;;2.39;100.00;97252.59;4998708;28;20048;-65
2021/11/23 02:55:58;;;;;;;20.33;13.40;;;;;;;2.36;100.00;97247.78;4994458;28;20507;-65
2021/11/23 02:58:23;;;;;;;17.05;10.85;;;;;;;2.34;100.00;97238.38;4996184;28;20041;-65
2021/11/23 03:00:49;;;;;;;20.15;10.80;;;;;;;2.36;100.00;97249.69;4996768;28;20049;-65
2021/11/23 03:03:15;;;;;;;17.15;10.45;;;;;;;2.34;100.00;97243.78;4996194;28;20060;-65
2021/11/23 03:05:41;;;;;;;20.08;11.00;;;;;;;2.39;100.00;97244.47;5002642;28;20080;-65
2021/11/23 03:08:07;;;;;;;22.50;11.50;;;;;;;2.27;100.00;97255.78;5004675;28;20034;-64
2021/11/23 03:10:32;;;;;;;17.60;11.15;;;;;;;2.19;100.00;97252.97;5000630;28;20457;-65
2021/11/23 03:12:59;;;;;;;16.52;10.50;;;;;;;2.21;100.00;97248.88;5002202;28;20498;-65
2021/11/23 03:15:26;;;;;;;17.80;10.70;;;;;;;2.14;100.00;97242.25;4992057;28;20064;-65
2021/11/23 03:17:53;;;;;;;18.33;10.48;;;;;;;2.14;100.00;97234.16;4999248;28;20077;-65
2021/11/23 03:20:20;;;;;;;18.00;11.73;;;;;;;2.09;100.00;97237.75;4995008;28;20037;-64
2021/11/23 03:22:46;;;;;;;20.23;11.43;;;;;;;2.03;100.00;97245.13;4997777;28;20129;-64
2021/11/23 03:25:13;;;;;;;22.75;12.82;;;;;;;1.99;100.00;97246.84;4995732;28;20133;-64
2021/11/23 03:27:39;;;;;;;20.80;10.27;;;;;;;2.10;100.00;97245.53;5003233;28;20161;-64
2021/11/23 03:30:07;;;;;;;18.25;10.65;;;;;;;2.06;100.00;97241.06;4993616;28;20073;-63
2021/11/23 03:32:33;;;;;;;20.83;11.98;;;;;;;2.00;100.00;97256.56;5007711;28;20423;-65
2021/11/23 03:34:59;;;;;;;20.13;12.38;;;;;;;2.00;100.00;97253.03;5005534;28;20092;-64
2021/11/23 03:37:26;;;;;;;18.92;10.80;;;;;;;2.04;100.00;97244.03;4997272;28;20085;-64
2021/11/23 03:39:54;;;;;;;21.20;12.38;;;;;;;2.02;100.00;97245.47;5000924;28;20042;-64
2021/11/23 03:42:20;;;;;;;21.88;12.93;;;;;;;1.94;100.00;97246.13;4998376;28;20494;-65
2021/11/23 03:44:46;;;;;;;18.48;11.18;;;;;;;1.99;100.00;97243.34;5003547;28;20045;-66
2021/11/23 03:47:14;;;;;;;19.77;10.82;;;;;;;2.02;100.00;97257.06;5001135;28;20117;-65
2021/11/23 03:49:44;;;;;;;20.02;12.18;;;;;;;2.06;100.00;97252.66;5014217;28;20566;-65
2021/11/23 03:52:11;;;;;;;17.95;12.00;;;;;;;2.03;100.00;97253.25;5008491;28;20042;-65
2021/11/23 03:54:36;;;;;;;19.48;12.13;;;;;;;2.05;100.00;97247.53;5014472;28;20048;-65
2021/11/23 03:57:02;;;;;;;20.98;12.23;;;;;;;2.04;100.00;97262.16;5013929;28;20109;-63
2021/11/23 03:59:28;;;;;;;20.90;11.90;;;;;;;2.02;100.00;97248.16;5008145;28;20138;-66
2021/11/23 04:01:53;;;;;;;22.77;12.48;;;;;;;2.00;100.00;97247.63;5006652;28;20080;-64
2021/11/23 04:04:19;;;;;;;20.23;11.57;;;;;;;2.04;100.00;97251.34;5004095;28;20073;-65
2021/11/23 04:06:45;;;;;;;21.27;12.00;;;;;;;2.00;100.00;97250.31;5011234;28;20049;-65
2021/11/23 04:09:10;;;;;;;17.70;11.65;;;;;;;2.00;100.00;97253.03;5004542;28;20069;-64
2021/11/23 04:11:36;;;;;;;22.30;13.45;;;;;;;1.98;100.00;97256.06;5017325;28;20050;-65
2021/11/23 04:14:02;;;;;;;21.42;12.15;;;;;;;1.94;100.00;97244.22;5019301;28;20767;-65
2021/11/23 04:16:28;;;;;;;20.45;12.63;;;;;;;1.87;100.00;97247.31;5015312;28;20038;-65
2021/11/23 04:18:54;;;;;;;23.40;12.80;;;;;;;1.84;100.00;97231.69;5015129;28;20077;-65
2021/11/23 04:21:20;;;;;;;19.88;12.07;;;;;;;1.85;100.00;97238.69;5013395;28;20053;-64
2021/11/23 04:23:46;;;;;;;19.95;12.55;;;;;;;1.82;100.00;97250.09;5010328;28;20081;-63
2021/11/23 04:26:11;;;;;;;17.75;11.15;;;;;;;1.84;100.00;97249.81;5009145;28;20033;-63
2021/11/23 04:28:37;;;;;;;21.13;12.32;;;;;;;1.86;100.00;97253.81;5003519;28;20084;-63
2021/11/23 04:31:03;;;;;;;20.98;12.10;;;;;;;1.88;100.00;97234.63;5006563;28;20041;-64
2021/11/23 04:33:28;;;;;;;23.08;12.60;;;;;;;1.86;100.00;97251.13;5001878;28;20045;-64
2021/11/23 04:35:54;;;;;;;21.67;13.25;;;;;;;1.90;100.00;97243.22;5002790;28;20050;-64
2021/11/23 04:38:19;;;;;;;20.60;12.60;;;;;;;1.95;100.00;97245.84;4997278;28;20042;-64
2021/11/23 04:40:45;;;;;;;21.80;12.85;;;;;;;1.91;100.00;97247.53;5004199;28;20045;-63
2021/11/23 04:43:10;;;;;;;21.38;12.52;;;;;;;1.92;100.00;97241.81;4998493;28;20042;-64
2021/11/23 04:45:37;;;;;;;21.00;12.88;;;;;;;1.92;100.00;97249.91;5003727;28;20041;-63
2021/11/23 04:48:04;;;;;;;20.80;11.48;;;;;;;1.95;100.00;97251.25;5001798;28;20085;-64
2021/11/23 04:50:30;;;;;;;20.95;12.98;;;;;;;1.94;100.00;97244.22;5001426;28;20419;-64
2021/11/23 04:52:56;;;;;;;21.15;12.65;;;;;;;1.89;100.00;97249.69;4999153;28;20073;-63
2021/11/23 04:55:21;;;;;;;24.23;13.27;;;;;;;1.87;100.00;97251.91;4998617;28;20837;-64
2021/11/23 04:57:47;;;;;;;23.17;12.95;;;;;;;1.94;100.00;97249.63;5003606;28;20045;-64
2021/11/23 05:00:15;;;;;;;18.88;12.38;;;;;;;1.92;100.00;97257.22;4995016;28;20037;-64
2021/11/23 05:02:42;;;;;;;21.92;13.10;;;;;;;1.94;100.00;97255.03;5003385;28;20054;-63
2021/11/23 05:05:09;;;;;;;20.73;12.73;;;;;;;1.90;100.00;97256.72;4997412;28;20045;-65
2021/11/23 05:07:35;;;;;;;19.88;12.18;;;;;;;1.84;100.00;97256.00;5002345;28;20061;-63
2021/11/23 05:10:00;;;;;;;20.85;12.50;;;;;;;1.76;100.00;97264.78;5002506;28;20041;-64
2021/11/23 05:12:26;;;;;;;23.65;13.32;;;;;;;1.79;100.00;97269.59;5000128;28;20914;-65
2021/11/23 05:14:52;;;;;;;21.13;12.98;;;;;;;1.76;100.00;97258.59;5002679;28;20058;-63
2021/11/23 05:17:18;;;;;;;19.40;12.98;;;;;;;1.74;100.00;97272.38;4997803;28;20100;-62
2021/11/23 05:19:44;;;;;;;21.08;12.57;;;;;;;1.69;100.00;97258.94;5002256;28;20038;-61
2021/11/23 05:22:10;;;;;;;22.25;13.63;;;;;;;1.72;100.00;97264.56;4995535;28;20743;-63
2021/11/23 05:24:36;;;;;;;21.73;12.10;;;;;;;1.66;100.00;97268.47;5001761;28;20108;-63
2021/11/23 05:27:02;;;;;;;22.75;13.43;;;;;;;1.58;100.00;97260.22;5003469;28;20045;-63
2021/11/23 05:29:29;;;;;;;23.90;12.90;;;;;;;1.63;100.00;97260.16;4999663;28;20049;-63
2021/11/23 05:31:54;;;;;;;22.85;14.05;;;;;;;1.55;100.00;97267.03;5001973;28;20538;-61
2021/11/23 05:34:20;;;;;;;20.23;12.38;;;;;;;1.53;100.00;97264.63;4998145;28;20042;-62
2021/11/23 05:36:46;;;;;;;22.02;13.57;;;;;;;1.53;100.00;97267.31;5002318;28;20937;-64
2021/11/23 05:39:12;;;;;;;24.65;13.93;;;;;;;1.47;100.00;97257.66;4993021;28;20050;-63
2021/11/23 05:41:38;;;;;;;25.52;13.38;;;;;;;1.49;100.00;97257.38;5002298;28;20053;-63
2021/11/23 05:44:04;;;;;;;26.60;14.20;;;;;;;1.50;100.00;97261.69;4999869;28;20038;-65
2021/11/23 05:46:30;;;;;;;21.85;13.73;;;;;;;1.45;100.00;97270.66;5003305;28;20038;-63
2021/11/23 05:48:56;;;;;;;21.80;12.85;;;;;;;1.45;100.00;97280.66;5003549;28;20041;-62
2021/11/23 05:51:22;;;;;;;23.73;13.25;;;;;;;1.44;100.00;97279.06;4994774;28;20127;-64
2021/11/23 05:53:47;;;;;;;21.27;13.80;;;;;;;1.42;100.00;97275.84;4996038;28;20133;-61
2021/11/23 05:56:13;;;;;;;20.92;13.63;;;;;;;1.36;100.00;97271.63;4996395;28;20146;-62
2021/11/23 05:58:38;;;;;;;25.35;15.25;;;;;;;1.34;100.00;97275.41;5003492;28;20117;-63
2021/11/23 06:01:05;;;;;;;24.33;14.82;;;;;;;1.38;100.00;97277.53;4995832;28;20042;-64
2021/11/23 06:03:31;;;;;;;25.52;14.38;;;;;;;1.30;100.00;97284.41;5001868;28;20064;-61
2021/11/23 06:05:56;;;;;;;26.90;15.88;;;;;;;1.32;100.00;97282.22;5000646;28;20120;-61
2021/11/23 06:08:22;;;;;;;23.67;13.80;;;;;;;1.34;100.00;97290.81;4990119;28;20503;-64
2021/11/23 06:10:48;;;;;;;23.05;13.02;;;;;;;1.39;100.00;97301.53;4992717;28;20046;-64
2021/11/23 06:13:13;;;;;;;26.13;13.90;;;;;;;1.37;100.00;97289.41;5001807;28;20034;-62
2021/11/23 06:15:42;;;;;;;24.23;13.98;;;;;;;1.35;100.00;97300.50;5000199;28;20042;-61
2021/11/23 06:18:10;;;;;;;25.75;14.45;;;;;;;1.28;100.00;97287.38;4996456;28;20566;-64
2021/11/23 06:20:36;;;;;;;30.17;16.27;;;;;;;1.33;100.00;97297.28;5000851;28;20042;-64
2021/11/23 06:23:03;;;;;;;24.98;14.07;;;;;;;1.34;100.00;97298.91;4999021;28;20455;-64
2021/11/23 06:25:30;;;;;;;32.67;18.27;;;;;;;1.30;100.00;97298.69;4998222;28;20053;-64
2021/11/23 06:27:56;;;;;;;24.98;15.23;;;;;;;1.31;100.00;97302.19;4999590;28;20042;-60
2021/11/23 06:30:22;;;;;;;25.90;14.13;;;;;;;1.38;100.00;97313.41;4999891;28;20053;-64
2021/11/23 06:32:48;;;;;;;25.35;14.45;;;;;;;1.37;100.00;97328.03;5000981;28;20184;-60
2021/11/23 06:35:14;;;;;;;26.45;15.02;;;;;;;1.40;100.00;97334.72;4990725;28;20761;-62
2021/11/23 06:37:39;;;;;;;23.65;14.63;;;;;;;1.39;100.00;97320.44;5001146;28;20073;-62
2021/11/23 06:40:08;;;;;;;25.45;14.30;;;;;;;1.41;100.00;97337.13;4991890;28;20120;-63
2021/11/23 06:42:33;;;;;;;27.80;15.93;;;;;;;1.46;100.00;97347.03;4996446;28;20050;-62
2021/11/23 06:44:59;;;;;;;24.45;14.52;;;;;;;1.43;100.00;97358.44;4998434;28;20048;-62
2021/11/23 06:47:25;;;;;;;28.10;15.75;;;;;;;1.48;100.00;97363.78;4995368;28;20382;-63
2021/11/23 06:49:51;;;;;;;24.15;14.15;;;;;;;1.56;100.00;97373.91;5000313;28;20052;-63
2021/11/23 06:52:18;;;;;;;29.05;17.20;;;;;;;1.48;100.00;97371.88;4992602;28;20127;-63
2021/11/23 06:54:45;;;;;;;27.10;15.50;;;;;;;1.55;100.00;97374.19;4998929;28;20048;-60
2021/11/23 06:57:11;;;;;;;23.30;13.25;;;;;;;1.58;100.00;97366.31;4994048;28;20056;-62
2021/11/23 06:59:38;;;;;;;24.15;14.45;;;;;;;1.54;100.00;97370.69;4997757;28;20042;-64
2021/11/23 07:02:04;;;;;;;23.27;14.15;;;;;;;1.58;100.00;97363.63;4992042;28;20156;-62
2021/11/23 07:04:29;;;;;;;25.42;14.32;;;;;;;1.59;100.00;97380.63;4998138;28;20054;-63
2021/11/23 07:06:55;;;;;;;26.40;14.88;;;;;;;1.55;100.00;97385.00;4999877;28;20069;-64
2021/11/23 07:09:21;;;;;;;24.20;13.60;;;;;;;1.65;100.00;97388.34;4991145;28;20056;-63
2021/11/23 07:11:46;;;;;;;24.95;14.38;;;;;;;1.66;100.00;97386.47;4991296;28;20071;-61
2021/11/23 07:14:12;;;;;;;25.08;13.98;;;;;;;1.72;100.00;97393.41;4993313;28;20088;-61
2021/11/23 07:16:39;;;;;;;26.17;14.20;;;;;;;1.69;100.00;97402.91;4993034;28;20048;-64
2021/11/23 07:19:05;;;;;;;29.13;15.90;;;;;;;1.77;100.00;97404.13;4992190;28;20042;-62
2021/11/23 07:21:30;;;;;;;26.50;14.80;;;;;;;1.87;100.00;97385.09;4995132;28;20120;-65
2021/11/23 07:23:57;;;;;;;25.98;13.20;;;;;;;2.04;100.00;97395.34;4998429;28;20583;-66
2021/11/23 07:26:24;;;;;;;32.70;18.02;;;;;;;2.10;100.00;97391.47;4994445;28;20465;-64
2021/11/23 07:28:49;;;;;;;25.38;14.20;;;;;;;2.14;100.00;97386.28;4995512;28;20048;-63
2021/11/23 07:31:14;;;;;;;24.05;13.20;;;;;;;2.24;100.00;97405.03;4991888;28;20053;-64
2021/11/23 07:33:40;;;;;;;24.45;13.38;;;;;;;2.08;100.00;97395.56;4997939;28;20365;-63
2021/11/23 07:36:05;;;;;;;22.33;11.77;;;;;;;2.27;100.00;97403.66;4993417;28;20569;-62
2021/11/23 07:38:31;;;;;;;23.60;13.43;;;;;;;2.01;100.00;97401.34;5000549;28;20076;-62
2021/11/23 07:40:56;;;;;;;21.00;11.93;;;;;;;1.98;100.00;97398.44;5001160;28;20046;-62
2021/11/23 07:43:21;;;;;;;23.90;13.07;;;;;;;2.19;100.00;97402.41;4992839;28;20127;-62
2021/11/23 07:45:47;;;;;;;29.80;17.85;;;;;;;2.06;100.00;97403.97;5000525;28;20096;-63
2021/11/23 07:48:12;;;;;;;24.55;12.10;;;;;;;2.08;100.00;97406.38;4994444;28;20400;-64
2021/11/23 07:50:39;;;;;;;25.13;15.48;;;;;;;1.88;100.00;97405.59;5000218;28;20069;-62
2021/11/23 07:53:05;;;;;;;22.98;12.82;;;;;;;2.19;100.00;97415.13;4994804;28;20053;-65
2021/11/23 07:55:30;;;;;;;20.02;10.50;;;;;;;2.32;100.00;97408.16;4988099;28;20395;-63
2021/11/23 07:57:56;;;;;;;24.48;12.63;;;;;;;2.15;100.00;97411.44;5016259;28;20069;-65
2021/11/23 08:00:26;;;;;;;22.20;13.45;;;;;;;1.98;100.00;97411.94;5010424;28;20484;-64
2021/11/23 08:02:51;;;;;;;;;;;;;;;2.02;100.00;97418.38;5002244;28;20038;-62
2021/11/23 08:05:17;;;;;;;21.50;12.50;;;;;;;2.20;100.00;97432.97;4999410;28;19963;-63
2021/11/23 08:07:42;;;;;;;21.10;12.00;;;;;;;2.31;100.00;97429.00;5002961;28;20041;-63
2021/11/23 08:10:08;;;;;;;29.00;16.25;;;;;;;2.22;100.00;97430.78;4999216;28;20045;-64
2021/11/23 08:12:33;;;;;;;24.83;13.40;;;;;;;2.32;100.00;97438.69;5000363;28;20125;-64
2021/11/23 08:14:59;;;;;;;24.42;14.02;;;;;;;2.18;100.00;97427.03;5003324;28;20484;-62
2021/11/23 08:17:24;;;;;;;24.45;13.48;;;;;;;2.46;99.97;97436.06;4997170;28;20045;-64
2021/11/23 08:19:50;;;;;;;22.15;12.15;;;;;;;2.61;99.07;97432.28;5001764;28;20045;-63
2021/11/23 08:22:16;;;;;;;21.52;11.75;;;;;;;2.53;99.10;97431.06;4998155;28;20030;-63
2021/11/23 08:24:42;;;;;;;19.65;10.85;;;;;;;2.49;98.18;97432.78;5003531;28;20663;-61
2021/11/23 08:27:09;;;;;;;21.73;10.27;;;;;;;2.66;98.00;97437.59;4997841;28;20415;-63
2021/11/23 08:29:34;;;;;;;21.98;12.43;;;;;;;2.61;97.80;97443.09;5003409;28;20046;-64
2021/11/23 08:32:00;;;;;;;25.95;13.57;;;;;;;2.32;100.00;97446.00;5003868;28;20501;-63
2021/11/23 08:34:27;;;;;;;20.33;11.75;;;;;;;2.41;98.97;97441.53;5008054;28;20050;-64
2021/11/23 08:36:53;;;;;;;26.02;15.90;;;;;;;2.36;99.51;97439.75;5005616;28;20073;-62
2021/11/23 08:39:19;;;;;;;24.35;14.02;;;;;;;2.13;100.00;97430.63;4996707;28;20139;-61
2021/11/23 08:41:44;;;;;;;22.23;12.73;;;;;;;2.33;99.26;97442.22;5002622;28;20042;-63
2021/11/23 08:44:10;;;;;;;24.23;12.85;;;;;;;2.23;100.00;97451.28;4998336;28;20072;-65
2021/11/23 08:46:36;;;;;;;23.23;11.32;;;;;;;2.32;100.00;97451.41;5004577;28;20046;-61
2021/11/23 08:49:03;;;;;;;22.45;11.70;;;;;;;2.46;99.84;97452.28;5000571;28;20200;-62
2021/11/23 08:51:31;;;;;;;23.33;12.20;;;;;;;2.43;99.68;97450.16;5000741;28;20042;-63
2021/11/23 08:53:57;;;;;;;22.13;11.45;;;;;;;2.55;98.65;97455.91;5002366;28;20042;-64
2021/11/23 08:56:22;;;;;;;23.48;12.65;;;;;;;2.71;99.70;97461.88;4998567;28;20788;-63
2021/11/23 08:58:52;;;;;;;20.25;10.48;;;;;;;2.97;96.32;97458.72;5002021;28;20518;-64
2021/11/23 09:01:21;;;;;;;;;;;;;;;2.68;96.85;97455.16;4997274;28;20042;-62
2021/11/23 09:03:46;;;;;;;20.75;10.77;;;;;;;2.92;97.14;97462.31;5017981;28;19921;-66
2021/11/23 09:06:13;;;;;;;19.27;9.60;;;;;;;3.21;95.13;97461.25;4994696;28;20540;-63
2021/11/23 09:08:46;;;;;;;18.25;10.77;;;;;;;3.02;95.72;97454.00;5002861;28;20041;-63
2021/11/23 09:11:11;;;;;;;20.17;11.82;;;;;;;2.99;96.26;97461.91;4996907;28;20145;-64
2021/11/23 09:13:37;;;;;;;20.50;10.18;;;;;;;2.72;96.15;97460.78;5000004;28;20559;-63
2021/11/23 09:16:02;;;;;;;23.75;12.93;;;;;;;2.36;98.45;97471.34;4999167;28;20604;-63
2021/11/23 09:18:27;;;;;;;21.05;11.15;;;;;;;2.57;99.42;97463.72;4994799;28;20046;-62
2021/11/23 09:20:53;;;;;;;21.17;11.55;;;;;;;2.58;98.00;97474.25;4995934;28;20037;-63
2021/11/23 09:23:19;;;;;;;26.25;14.60;;;;;;;2.41;99.16;97482.91;4986380;28;20056;-62
2021/11/23 09:25:44;;;;;;;24.25;13.07;;;;;;;2.59;98.63;97473.19;4996599;28;20525;-66
2021/11/23 09:28:10;;;;;;;24.10;11.63;;;;;;;2.72;96.98;97481.59;4995037;28;20034;-63
2021/11/23 09:30:37;;;;;;;22.20;11.38;;;;;;;2.40;98.20;97477.81;4998395;28;20096;-64
2021/11/23 09:33:04;;;;;;;21.83;12.23;;;;;;;2.35;98.24;97488.69;4994871;28;20641;-66
2021/11/23 09:35:29;;;;;;;22.30;11.73;;;;;;;2.43;99.82;97483.44;4999999;28;20056;-62
2021/11/23 09:37:55;;;;;;;22.42;11.73;;;;;;;2.55;99.15;97474.84;5001680;28;20041;-63
2021/11/23 09:40:21;;;;;;;19.58;10.40;;;;;;;2.61;99.25;97479.09;4996412;28;20042;-64
2021/11/23 09:42:48;;;;;;;22.63;10.70;;;;;;;2.60;97.94;97480.16;5001562;28;20038;-64
2021/11/23 09:45:15;;;;;;;23.58;11.32;;;;;;;2.56;99.14;97487.28;4991382;28;20048;-62
2021/11/23 09:47:41;;;;;;;23.40;11.30;;;;;;;2.58;98.34;97487.78;4999114;28;20054;-65
2021/11/23 09:50:07;;;;;;;21.08;11.23;;;;;;;2.57;98.71;97494.28;4992052;28;20150;-66
2021/11/23 09:52:34;;;;;;;21.48;10.70;;;;;;;2.76;99.11;97483.44;4999372;28;20046;-64
2021/11/23 09:55:00;;;;;;;22.83;12.88;;;;;;;2.66;98.48;97480.88;5000193;28;20038;-62
2021/11/23 09:57:25;;;;;;;20.77;11.80;;;;;;;2.59;99.47;97480.47;4994041;28;20068;-64
2021/11/23 09:59:51;;;;;;;20.80;9.85;;;;;;;2.84;97.57;97484.66;5000013;28;20129;-60
2021/11/23 10:02:25;;;;;;;18.15;9.55;;;;;;;2.64;98.22;97477.69;4991477;28;20049;-61
2021/11/23 10:05:04;;;;;;;20.55;10.13;;;;;;;2.75;97.67;97484.53;4997882;28;20038;-63
2021/11/23 10:07:41;;;;;;;20.38;11.05;;;;;;;2.78;97.83;97477.72;4996373;28;20314;-63
2021/11/23 10:10:18;;;;;;;21.52;10.63;;;;;;;2.98;97.30;97479.28;4995281;28;20133;-62
2021/11/23 10:12:59;;;;;;;19.77;10.05;;;;;;;2.83;96.79;97488.47;4999682;28;20136;-63
2021/11/23 10:15:30;;;;;;;18.33;9.85;;;;;;;2.89;95.01;97479.16;4993020;28;20419;-64
2021/11/23 10:18:20;;;;;;;20.65;11.00;;;;;;;2.67;96.59;97485.22;4999705;28;20042;-61
2021/11/23 10:20:56;;;;;;;22.13;10.23;;;;;;;2.76;95.67;97491.56;5000001;28;20049;-58
2021/11/23 10:23:29;;;;;;;21.15;10.60;;;;;;;2.66;96.40;97492.50;4992563;28;20846;-63
2021/11/23 10:26:14;;;;;;;21.00;10.02;;;;;;;2.65;96.60;97480.09;4998183;28;20097;-62
2021/11/23 10:28:49;;;;;;;20.95;11.85;;;;;;;2.52;96.24;97488.16;4999733;28;20046;-61
2021/11/23 10:31:15;;;;;;;20.10;9.75;;;;;;;2.65;96.02;97488.22;4993976;28;20433;-63
2021/11/23 10:33:42;;;;;;;20.15;10.35;;;;;;;2.78;95.83;97489.34;4999786;28;20430;-62
2021/11/23 10:36:10;;;;;;;20.60;11.05;;;;;;;2.63;94.64;97478.78;4994849;28;20069;-63
2021/11/23 10:38:38;;;;;;;22.10;11.18;;;;;;;2.82;94.44;97484.16;4997386;28;20129;-65
2021/11/23 10:41:11;;;;;;;18.80;10.23;;;;;;;2.90;93.47;97479.94;4994475;28;20501;-66
2021/11/23 10:43:39;;;;;;;19.70;10.98;;;;;;;2.78;95.50;97480.44;5000043;28;20050;-66
2021/11/23 10:46:18;;;;;;;18.70;10.57;;;;;;;2.75;95.13;97491.84;4995991;28;20096;-63
2021/11/23 10:49:00;;;;;;;19.27;11.38;;;;;;;2.99;94.15;97487.09;4999403;28;20156;-62
2021/11/23 10:51:35;;;;;;;18.98;9.38;;;;;;;2.93;93.46;97492.88;4993415;28;20056;-63
2021/11/23 10:54:15;;;;;;;18.48;10.07;;;;;;;2.68;93.59;97492.22;5000976;28;20526;-61
2021/11/23 10:57:02;;;;;;;18.42;9.50;;;;;;;2.97;93.64;97483.06;4999946;28;20077;-62
2021/11/23 10:59:28;;;;;;;18.27;9.38;;;;;;;3.04;92.38;97475.38;4996238;28;20064;-64
2021/11/23 11:01:55;;;;;;;16.92;10.02;;;;;;;3.00;91.84;97475.16;4999937;28;20398;-62
2021/11/23 11:04:22;;;;;;;21.17;9.80;;;;;;;3.18;91.59;97469.97;4994748;28;20053;-63
2021/11/23 11:06:48;;;;;;;17.15;9.05;;;;;;;3.14;90.55;97474.38;4998431;28;20082;-61
2021/11/23 11:09:18;;;;;;;23.85;12.18;;;;;;;3.03;92.74;97479.97;4994130;28;20124;-61
2021/11/23 11:11:44;;;;;;;17.42;9.23;;;;;;;3.00;92.04;97474.38;5001402;28;20065;-62
2021/11/23 11:14:12;;;;;;;18.17;10.70;;;;;;;2.90;92.13;97467.25;4995602;28;20465;-64
2021/11/23 11:16:38;;;;;;;20.42;10.25;;;;;;;3.06;91.85;97462.34;4999982;28;20037;-63
2021/11/23 11:19:11;;;;;;;17.63;9.32;;;;;;;2.89;92.84;97464.81;4994695;28;20053;-65
2021/11/23 11:21:38;;;;;;;16.73;8.93;;;;;;;3.17;90.35;97474.59;5000070;28;20053;-61